Time;durP1;ratioP1;P1;durP2;ratioP2;P2;SDS_P1;SDS_P2;PMS_P1;PMS_P2;Temp;Humidity;BMP_temperature;BMP_pressure;BME280_temperature;BME280_humidity;BME280_pressure;Samples;Min_cycle;Max_cycle;Signal;HPM_P1;HPM_P2
2023/04/18 00:00:21;;;;;;;;;;;;;;;;;;;;;
2023/04/18 00:04:45;;;;;;;9.86;6.59;;;;;;;;;;1026265;27;20341;-85
2023/04/18 00:05:01;;;;;;;9.48;6.63;;;;;;;;;;522177;28;1339;-83
2023/04/18 00:05:16;;;;;;;11.13;6.50;;;;;;;;;;521119;28;1615;-87
2023/04/18 00:05:32;;;;;;;9.88;6.45;;;;;;;;;;521967;28;1322;-85
2023/04/18 00:05:47;;;;;;;10.70;6.50;;;;;;;;;;519021;28;1406;-86
2023/04/18 00:06:02;;;;;;;9.80;6.27;;;;;;;;;;517073;28;1358;-85
2023/04/18 00:06:19;;;;;;;7.93;6.30;;;;;;;;;;516320;28;1700;-85
2023/04/18 00:06:35;;;;;;;9.30;6.50;;;;;;;;;;515838;28;1591;-84
2023/04/18 00:06:50;;;;;;;9.20;6.30;;;;;;;;;;514883;28;1464;-80
2023/04/18 00:07:05;;;;;;;8.53;6.20;;;;;;;;;;518526;28;1388;-85
2023/04/18 00:07:21;;;;;;;8.07;6.40;;;;;;;;;;518393;28;1266;-85
2023/04/18 00:07:36;;;;;;;7.90;6.47;;;;;;;;;;517342;28;1626;-84
2023/04/18 00:07:52;;;;;;;8.53;6.40;;;;;;;;;;521160;28;1594;-86
2023/04/18 00:08:07;;;;;;;8.48;6.43;;;;;;;;;;519506;28;1430;-85
2023/04/18 00:08:22;;;;;;;8.40;6.40;;;;;;;;;;518711;28;1343;-85
2023/04/18 00:08:38;;;;;;;8.75;6.28;;;;;;;;;;510003;28;1254;-86
2023/04/18 00:08:57;;;;;;;8.23;6.00;;;;;;;;;;487089;28;1121;-85
2023/04/18 00:09:42;;;;;;;7.45;6.22;;;;;;;;;;496161;28;1283;-85
2023/04/18 00:10:29;;;;;;;7.53;6.28;;;;;;;;;;504418;28;1248;-86
2023/04/18 00:10:57;;;;;;;8.65;6.57;;;;;;;;;;496748;28;1472;-85
2023/04/18 00:12:20;;;;;;;9.30;6.30;;;;;;;;;;504869;28;991;-86
2023/04/18 00:13:29;;;;;;;7.93;6.45;;;;;;;;;;475675;28;1266;-86
2023/04/18 00:14:49;;;;;;;8.55;6.28;;;;;;;;;;503309;28;1011;-86
2023/04/18 00:15:07;;;;;;;9.45;6.63;;;;;;;;;;489700;28;1146;-86
2023/04/18 00:15:43;;;;;;;8.27;6.30;;;;;;;;;;492409;28;1180;-85
2023/04/18 00:16:21;;;;;;;7.57;6.53;;;;;;;;;;505858;28;1393;-86
2023/04/18 00:16:56;;;;;;;7.53;6.25;;;;;;;;;;492703;28;1254;-87
2023/04/18 00:17:12;;;;;;;8.77;6.63;;;;;;;;;;485799;28;1366;-86
2023/04/18 00:18:16;;;;;;;9.05;6.72;;;;;;;;;;488305;28;1323;-86
2023/04/18 00:18:36;;;;;;;9.20;6.68;;;;;;;;;;510106;28;1259;-86
2023/04/18 00:20:11;;;;;;;;;;;;;;;;;;;;;
2023/04/18 00:20:49;;;;;;;;;;;;;;;;;;;;;
2023/04/18 00:22:28;;;;;;;8.57;6.10;;;;;;;;;;505758;28;1167;-86
2023/04/18 00:28:12;;;;;;;9.13;6.65;;;;;;;;;;492824;29;1370;-86
2023/04/18 00:28:51;;;;;;;8.57;6.45;;;;;;;;;;482015;29;1212;-85
2023/04/18 00:29:09;;;;;;;7.35;5.95;;;;;;;;;;469079;29;1279;-84
2023/04/18 00:29:34;;;;;;;6.80;5.97;;;;;;;;;;470308;29;1456;-86
2023/04/18 00:30:02;;;;;;;7.60;6.20;;;;;;;;;;466577;29;1164;-85
2023/04/18 00:31:53;;;;;;;7.43;6.63;;;;;;;;;;494279;29;1182;-84
2023/04/18 00:32:32;;;;;;;8.00;6.72;;;;;;;;;;494802;29;1269;-84
2023/04/18 00:33:21;;;;;;;6.95;6.25;;;;;;;;;;470106;29;1227;-84
2023/04/18 00:35:23;;;;;;;7.15;6.30;;;;;;;;;;491629;29;1285;-84
2023/04/18 00:37:44;;;;;;;8.52;6.93;;;;;;;;;;486304;30;1269;-85
2023/04/18 00:38:00;;;;;;;8.88;7.07;;;;;;;;;;461911;30;1123;-84
2023/04/18 00:39:53;;;;;;;8.82;7.35;;;;;;;;;;482472;30;1415;-85
2023/04/18 00:42:11;;;;;;;9.73;7.32;;;;;;;;;;477579;30;1259;-84
2023/04/18 00:42:28;;;;;;;9.68;7.35;;;;;;;;;;476472;30;1304;-85
2023/04/18 00:43:09;;;;;;;9.32;7.32;;;;;;;;;;477706;30;1464;-84
2023/04/18 00:43:25;;;;;;;12.05;7.53;;;;;;;;;;471134;30;1288;-86
2023/04/18 00:44:05;;;;;;;11.75;7.60;;;;;;;;;;480676;30;1045;-85
2023/04/18 00:44:44;;;;;;;8.95;7.15;;;;;;;;;;474615;30;1941;-85
2023/04/18 00:45:37;;;;;;;9.25;7.10;;;;;;;;;;475367;30;1279;-85
2023/04/18 00:45:53;;;;;;;8.90;7.00;;;;;;;;;;472612;30;1370;-85
2023/04/18 00:46:09;;;;;;;8.57;7.10;;;;;;;;;;471697;30;1576;-85
2023/04/18 00:47:39;;;;;;;10.20;7.10;;;;;;;;;;474826;30;1254;-85
2023/04/18 00:48:17;;;;;;;8.80;7.18;;;;;;;;;;475148;30;1348;-86
2023/04/18 00:48:51;;;;;;;8.07;6.47;;;;;;;;;;473942;30;1165;-85
2023/04/18 00:50:05;;;;;;;8.57;6.60;;;;;;;;;;474813;30;1094;-86
2023/04/18 00:50:34;;;;;;;8.57;7.00;;;;;;;;;;470226;30;1328;-85
2023/04/18 00:50:53;;;;;;;9.10;6.57;;;;;;;;;;476388;30;1090;-86
2023/04/18 00:51:32;;;;;;;9.20;6.80;;;;;;;;;;473300;30;1123;-87
2023/04/18 00:52:05;;;;;;;9.65;7.00;;;;;;;;;;474690;30;1233;-86
2023/04/18 00:52:48;;;;;;;9.20;7.15;;;;;;;;;;474245;30;1371;-87
2023/04/18 00:53:04;;;;;;;8.38;6.90;;;;;;;;;;476788;30;1338;-85
2023/04/18 00:54:11;;;;;;;8.02;7.15;;;;;;;;;;474552;30;1330;-85
2023/04/18 00:54:49;;;;;;;7.75;6.95;;;;;;;;;;474794;30;1164;-85
2023/04/18 00:55:08;;;;;;;7.53;6.65;;;;;;;;;;472355;30;1164;-84
2023/04/18 00:55:36;;;;;;;8.52;6.68;;;;;;;;;;470361;30;1315;-85
2023/04/18 00:55:58;;;;;;;7.72;6.60;;;;;;;;;;474317;30;1210;-85
2023/04/18 00:56:19;;;;;;;8.68;7.20;;;;;;;;;;469243;30;1272;-86
2023/04/18 00:57:26;;;;;;;;;;;;;;;;;;;;;
2023/04/18 00:58:30;;;;;;;9.88;6.63;;;;;;;;;;510809;27;21344;-86
2023/04/18 00:58:46;;;;;;;9.52;6.80;;;;;;;;;;530188;27;1135;-86
2023/04/18 00:59:02;;;;;;;8.83;7.13;;;;;;;;;;528751;28;1231;-85
2023/04/18 00:59:17;;;;;;;9.68;7.40;;;;;;;;;;529819;28;1123;-85
2023/04/18 00:59:34;;;;;;;10.23;7.40;;;;;;;;;;529145;28;1183;-86
2023/04/18 00:59:49;;;;;;;10.52;7.25;;;;;;;;;;528498;28;1089;-84
2023/04/18 01:00:09;;;;;;;10.75;6.80;;;;;;;;;;527169;28;1158;-86
2023/04/18 01:00:24;;;;;;;7.47;6.35;;;;;;;;;;527076;28;1364;-86
2023/04/18 01:00:39;;;;;;;8.77;7.03;;;;;;;;;;528128;27;1250;-85
2023/04/18 01:00:54;;;;;;;10.13;7.50;;;;;;;;;;526908;28;1246;-86
2023/04/18 01:01:10;;;;;;;10.20;7.50;;;;;;;;;;526892;28;1224;-86
2023/04/18 01:01:25;;;;;;;9.73;7.13;;;;;;;;;;527832;28;1268;-86
2023/04/18 01:01:42;;;;;;;8.93;7.40;;;;;;;;;;526166;28;1344;-85
2023/04/18 01:01:57;;;;;;;8.80;7.50;;;;;;;;;;525455;28;1560;-85
2023/04/18 01:02:12;;;;;;;8.50;7.20;;;;;;;;;;525228;28;1196;-85
2023/04/18 01:02:29;;;;;;;8.23;7.07;;;;;;;;;;527100;28;1219;-86
2023/04/18 01:02:45;;;;;;;10.18;7.55;;;;;;;;;;527199;28;1217;-86
2023/04/18 01:03:01;;;;;;;10.00;7.68;;;;;;;;;;524987;28;1353;-86
2023/04/18 01:03:17;;;;;;;8.53;7.33;;;;;;;;;;523000;28;1191;-86
2023/04/18 01:03:33;;;;;;;9.95;7.80;;;;;;;;;;524990;28;1275;-83
2023/04/18 01:03:48;;;;;;;11.10;7.90;;;;;;;;;;525747;28;1209;-84
2023/04/18 01:04:03;;;;;;;9.63;7.53;;;;;;;;;;527244;28;1233;-85
2023/04/18 01:04:18;;;;;;;8.23;7.10;;;;;;;;;;527593;28;1270;-85
2023/04/18 01:04:34;;;;;;;8.97;7.10;;;;;;;;;;524927;28;1239;-86
2023/04/18 01:04:49;;;;;;;9.30;7.30;;;;;;;;;;523259;28;1162;-85
2023/04/18 01:05:05;;;;;;;8.88;7.20;;;;;;;;;;522991;28;1296;-85
2023/04/18 01:05:21;;;;;;;10.35;7.50;;;;;;;;;;523306;28;1130;-85
2023/04/18 01:05:36;;;;;;;9.80;7.70;;;;;;;;;;521728;28;1334;-84
2023/04/18 01:05:52;;;;;;;7.97;7.17;;;;;;;;;;520735;28;1170;-85
2023/04/18 01:06:08;;;;;;;8.32;6.80;;;;;;;;;;521081;28;1360;-86
2023/04/18 01:06:31;;;;;;;10.37;7.10;;;;;;;;;;501767;28;1302;-86
2023/04/18 01:07:08;;;;;;;9.68;7.18;;;;;;;;;;487733;28;1128;-86
2023/04/18 01:07:32;;;;;;;8.68;7.10;;;;;;;;;;501590;28;1299;-87
2023/04/18 01:09:10;;;;;;;9.93;7.05;;;;;;;;;;503649;28;1282;-86
2023/04/18 01:10:10;;;;;;;10.15;7.10;;;;;;;;;;495328;28;1331;-86
2023/04/18 01:11:03;;;;;;;9.05;7.43;;;;;;;;;;507010;28;1309;-86
2023/04/18 01:12:03;;;;;;;9.95;7.55;;;;;;;;;;506700;28;1265;-86
2023/04/18 01:12:06;;;;;;;8.48;7.50;;;;;;;;;;503852;28;1344;-88
2023/04/18 01:12:21;;;;;;;9.00;7.60;;;;;;;;;;501202;28;1361;-87
2023/04/18 01:13:08;;;;;;;10.88;7.70;;;;;;;;;;505657;28;1264;-87
2023/04/18 01:14:36;;;;;;;9.30;7.55;;;;;;;;;;497731;28;1120;-85
2023/04/18 01:15:23;;;;;;;;;;;;;;;;;;;;;
2023/04/18 01:15:36;;;;;;;10.52;7.68;;;;;;;;;;503220;28;1274;-88
2023/04/18 01:16:47;;;;;;;8.65;7.47;;;;;;;;;;507726;28;919;-87
2023/04/18 01:17:12;;;;;;;8.82;7.28;;;;;;;;;;507026;28;1326;-87
2023/04/18 01:17:54;;;;;;;9.95;7.32;;;;;;;;;;506709;28;1342;-87
2023/04/18 01:18:10;;;;;;;9.90;7.57;;;;;;;;;;498095;28;1922;-86
2023/04/18 01:19:11;;;;;;;8.20;6.80;;;;;;;;;;501651;28;1321;-87
2023/04/18 01:19:29;;;;;;;9.05;6.90;;;;;;;;;;504911;28;1085;-86
2023/04/18 01:19:51;;;;;;;9.60;7.00;;;;;;;;;;503100;28;1385;-86
2023/04/18 01:20:10;;;;;;;8.60;7.30;;;;;;;;;;500501;28;1255;-87
2023/04/18 01:21:08;;;;;;;;;;;;;;;;;;;;;
2023/04/18 01:21:32;;;;;;;9.35;6.97;;;;;;;;;;504507;28;1147;-87
2023/04/18 01:21:48;;;;;;;8.05;7.03;;;;;;;;;;505325;28;1315;-86
2023/04/18 01:22:05;;;;;;;9.25;7.22;;;;;;;;;;501114;28;1383;-87
2023/04/18 01:22:49;;;;;;;;;;;;;;;;;;;;;
2023/04/18 01:23:19;;;;;;;;;;;;;;;;;;;;;
2023/04/18 01:23:38;;;;;;;8.52;7.07;;;;;;;;;;516870;28;1052;-86
2023/04/18 01:24:27;;;;;;;7.88;6.80;;;;;;;;;;518291;27;1230;-87
2023/04/18 01:24:46;;;;;;;8.38;6.68;;;;;;;;;;517707;28;1442;-86
2023/04/18 01:25:08;;;;;;;8.80;7.13;;;;;;;;;;514472;28;1358;-86
2023/04/18 01:25:23;;;;;;;8.40;7.18;;;;;;;;;;511481;28;1098;-88
2023/04/18 01:26:10;;;;;;;9.25;6.90;;;;;;;;;;514422;28;1256;-86
2023/04/18 01:26:32;;;;;;;10.25;7.18;;;;;;;;;;513814;28;1204;-87
2023/04/18 01:26:51;;;;;;;10.75;7.10;;;;;;;;;;514214;28;1219;-87
2023/04/18 01:27:12;;;;;;;9.10;6.85;;;;;;;;;;514559;28;1336;-87
2023/04/18 01:27:37;;;;;;;9.10;6.93;;;;;;;;;;516470;28;1504;-88
2023/04/18 01:28:05;;;;;;;10.23;7.40;;;;;;;;;;516747;28;1554;-87
2023/04/18 01:28:21;;;;;;;8.88;7.20;;;;;;;;;;510650;28;1295;-87
2023/04/18 01:28:43;;;;;;;9.55;6.95;;;;;;;;;;516685;28;1349;-87
2023/04/18 01:28:59;;;;;;;7.50;6.68;;;;;;;;;;514344;28;1266;-86
2023/04/18 01:29:18;;;;;;;7.50;6.65;;;;;;;;;;507698;28;1085;-87
2023/04/18 01:29:43;;;;;;;8.50;7.05;;;;;;;;;;514437;28;1375;-87
2023/04/18 01:30:14;;;;;;;10.07;7.00;;;;;;;;;;517218;28;1217;-86
2023/04/18 01:30:50;;;;;;;8.70;7.00;;;;;;;;;;515331;28;1320;-88
2023/04/18 01:31:09;;;;;;;7.97;6.80;;;;;;;;;;507492;28;1374;-87
2023/04/18 01:31:36;;;;;;;8.25;6.90;;;;;;;;;;505196;28;1105;-87
2023/04/18 01:32:04;;;;;;;10.48;6.97;;;;;;;;;;514350;28;1092;-86
2023/04/18 01:32:45;;;;;;;7.80;6.78;;;;;;;;;;509835;28;1172;-85
2023/04/18 01:33:05;;;;;;;9.35;7.10;;;;;;;;;;516676;28;1144;-86
2023/04/18 01:33:48;;;;;;;9.73;6.90;;;;;;;;;;514224;28;1133;-86
2023/04/18 01:35:08;;;;;;;10.75;7.25;;;;;;;;;;506275;28;1206;-85
2023/04/18 01:36:05;;;;;;;9.52;7.35;;;;;;;;;;502693;28;1331;-86
2023/04/18 01:36:31;;;;;;;8.05;7.25;;;;;;;;;;502005;28;1389;-86
2023/04/18 01:37:20;;;;;;;;;;;;;;;;;;;;;
2023/04/18 01:38:04;;;;;;;10.15;7.00;;;;;;;;;;504382;28;1369;-86
2023/04/18 01:38:45;;;;;;;8.82;7.18;;;;;;;;;;499700;28;1408;-86
2023/04/18 01:39:24;;;;;;;10.27;7.07;;;;;;;;;;492823;28;1249;-85
2023/04/18 01:39:46;;;;;;;9.82;7.13;;;;;;;;;;505649;28;1290;-86
2023/04/18 01:40:08;;;;;;;9.60;7.30;;;;;;;;;;504715;28;1162;-87
2023/04/18 01:40:24;;;;;;;10.98;7.20;;;;;;;;;;504793;28;1273;-87
2023/04/18 01:40:43;;;;;;;10.95;7.15;;;;;;;;;;505214;28;1236;-87
2023/04/18 01:41:05;;;;;;;9.13;7.30;;;;;;;;;;507757;28;1198;-87
2023/04/18 01:41:40;;;;;;;8.18;7.30;;;;;;;;;;504440;28;1357;-86
2023/04/18 01:42:05;;;;;;;8.25;7.30;;;;;;;;;;506925;28;1342;-86
2023/04/18 01:42:24;;;;;;;7.53;6.75;;;;;;;;;;501898;28;1475;-86
2023/04/18 01:42:57;;;;;;;8.98;6.97;;;;;;;;;;500587;28;1149;-86
2023/04/18 01:43:34;;;;;;;;;;;;;;;;;;;;;
2023/04/18 01:45:02;;;;;;;10.45;7.13;;;;;;;;;;505650;28;1166;-87
2023/04/18 01:45:32;;;;;;;9.18;7.38;;;;;;;;;;502431;28;1459;-87
2023/04/18 01:46:01;;;;;;;10.07;7.18;;;;;;;;;;504310;28;1443;-86
2023/04/18 01:46:40;;;;;;;9.75;7.28;;;;;;;;;;500679;28;1188;-85
2023/04/18 01:47:03;;;;;;;7.65;6.50;;;;;;;;;;501111;28;1714;-85
2023/04/18 01:47:39;;;;;;;9.32;7.13;;;;;;;;;;496635;28;1193;-86
2023/04/18 01:48:13;;;;;;;10.10;7.20;;;;;;;;;;475598;28;1355;-84
2023/04/18 01:48:42;;;;;;;9.55;7.65;;;;;;;;;;476354;28;1368;-85
2023/04/18 01:49:06;;;;;;;11.05;7.45;;;;;;;;;;472326;28;1617;-86
2023/04/18 01:50:04;;;;;;;;;;;;;;;;;;;;;
2023/04/18 01:50:30;;;;;;;8.20;7.07;;;;;;;;;;481108;28;1339;-85
2023/04/18 01:50:59;;;;;;;;;;;;;;;;;;;;;
2023/04/18 01:52:16;;;;;;;10.02;7.78;;;;;;;;;;494923;28;1281;-85
2023/04/18 01:52:37;;;;;;;10.18;7.85;;;;;;;;;;486315;29;1429;-84
2023/04/18 01:53:01;;;;;;;8.95;7.38;;;;;;;;;;479142;29;1890;-85
2023/04/18 01:54:04;;;;;;;9.27;7.38;;;;;;;;;;488326;28;1191;-85
2023/04/18 01:54:48;;;;;;;9.95;7.15;;;;;;;;;;481089;29;1440;-85
2023/04/18 01:55:26;;;;;;;;;;;;;;;;;;;;;
2023/04/18 01:55:56;;;;;;;8.38;7.25;;;;;;;;;;488020;29;1068;-86
2023/04/18 01:57:02;;;;;;;8.25;7.28;;;;;;;;;;490740;29;1287;-86
2023/04/18 01:57:30;;;;;;;9.98;7.22;;;;;;;;;;487563;29;1280;-85
2023/04/18 01:58:06;;;;;;;11.82;7.60;;;;;;;;;;489550;29;1183;-86
2023/04/18 01:58:27;;;;;;;8.57;7.38;;;;;;;;;;488982;29;1499;-86
2023/04/18 01:58:56;;;;;;;9.02;7.43;;;;;;;;;;488632;29;1325;-87
2023/04/18 01:59:11;;;;;;;8.88;6.93;;;;;;;;;;486558;29;1401;-86
2023/04/18 01:59:29;;;;;;;9.85;7.03;;;;;;;;;;486689;29;1207;-85
2023/04/18 01:59:57;;;;;;;10.25;6.75;;;;;;;;;;491218;29;1154;-85
2023/04/18 02:01:05;;;;;;;9.82;6.93;;;;;;;;;;487426;29;1195;-85
2023/04/18 02:01:55;;;;;;;7.80;7.00;;;;;;;;;;481938;29;1305;-85
2023/04/18 02:02:29;;;;;;;8.88;7.53;;;;;;;;;;483933;29;1496;-86
2023/04/18 02:02:57;;;;;;;8.20;7.05;;;;;;;;;;478613;29;1130;-85
2023/04/18 02:04:00;;;;;;;8.45;7.00;;;;;;;;;;468480;29;1288;-86
2023/04/18 02:06:15;;;;;;;8.68;7.35;;;;;;;;;;465475;30;916;-86
2023/04/18 02:07:01;;;;;;;;;;;;;;;;;;;;;
2023/04/18 02:08:54;;;;;;;10.65;7.50;;;;;;;;;;465154;30;1278;-86
2023/04/18 02:09:42;;;;;;;;;;;;;;;;;;;;;
2023/04/18 02:10:19;;;;;;;9.52;7.47;;;;;;;;;;462351;30;1082;-86
2023/04/18 02:11:04;;;;;;;9.27;7.63;;;;;;;;;;455541;30;1193;-86
2023/04/18 02:11:32;;;;;;;8.65;7.35;;;;;;;;;;464074;30;1313;-85
2023/04/18 02:12:53;;;;;;;9.10;7.07;;;;;;;;;;458475;30;1183;-86
2023/04/18 02:13:14;;;;;;;10.75;7.30;;;;;;;;;;465603;30;1312;-87
2023/04/18 02:13:35;;;;;;;9.80;7.13;;;;;;;;;;470102;30;1190;-87
2023/04/18 02:14:00;;;;;;;9.10;7.15;;;;;;;;;;473085;30;1137;-85
2023/04/18 02:14:48;;;;;;;10.32;7.40;;;;;;;;;;473089;30;1380;-86
2023/04/18 02:17:02;;;;;;;9.93;7.25;;;;;;;;;;470422;30;1197;-85
2023/04/18 02:17:18;;;;;;;9.70;7.40;;;;;;;;;;464378;30;1263;-85
2023/04/18 02:17:35;;;;;;;8.93;7.35;;;;;;;;;;466293;30;1414;-84
2023/04/18 02:17:54;;;;;;;10.02;7.30;;;;;;;;;;475155;30;1409;-85
2023/04/18 02:18:17;;;;;;;10.60;7.22;;;;;;;;;;474558;30;1957;-86
2023/04/18 02:19:19;;;;;;;10.18;7.43;;;;;;;;;;481669;29;1114;-86
2023/04/18 02:19:40;;;;;;;8.70;7.32;;;;;;;;;;481909;29;1323;-86
2023/04/18 02:20:22;;;;;;;9.65;7.07;;;;;;;;;;482455;29;1192;-86
2023/04/18 02:20:47;;;;;;;8.65;7.55;;;;;;;;;;475080;29;1435;-86
2023/04/18 02:21:03;;;;;;;8.88;7.38;;;;;;;;;;477506;29;1240;-85
2023/04/18 02:22:04;;;;;;;9.52;7.50;;;;;;;;;;484483;29;1303;-85
2023/04/18 02:22:41;;;;;;;9.35;7.53;;;;;;;;;;481158;29;1314;-85
2023/04/18 02:23:06;;;;;;;10.18;7.28;;;;;;;;;;491114;29;1453;-85
2023/04/18 02:23:25;;;;;;;8.82;7.40;;;;;;;;;;485418;29;1336;-85
2023/04/18 02:24:00;;;;;;;10.60;7.47;;;;;;;;;;488591;29;1199;-86
2023/04/18 02:24:43;;;;;;;10.45;7.53;;;;;;;;;;485950;29;1300;-86
2023/04/18 02:25:01;;;;;;;8.35;7.10;;;;;;;;;;490315;29;1253;-87
2023/04/18 02:25:22;;;;;;;8.68;7.32;;;;;;;;;;484422;29;1270;-87
2023/04/18 02:26:17;;;;;;;9.75;7.45;;;;;;;;;;484940;29;1183;-86
2023/04/18 02:26:24;;;;;;;9.32;7.82;;;;;;;;;;489246;29;1331;-87
2023/04/18 02:26:56;;;;;;;8.98;7.63;;;;;;;;;;490411;29;1351;-87
2023/04/18 02:27:15;;;;;;;9.23;7.13;;;;;;;;;;482783;29;1126;-86
2023/04/18 02:28:39;;;;;;;9.38;7.30;;;;;;;;;;481513;29;1008;-87
2023/04/18 02:29:03;;;;;;;9.55;7.72;;;;;;;;;;483916;29;1242;-88
2023/04/18 02:30:03;;;;;;;8.68;7.30;;;;;;;;;;485484;29;1427;-86
2023/04/18 02:30:54;;;;;;;9.45;7.60;;;;;;;;;;483198;29;1477;-86
2023/04/18 02:32:34;;;;;;;8.20;7.30;;;;;;;;;;487641;29;1341;-87
2023/04/18 02:33:11;;;;;;;8.50;7.10;;;;;;;;;;491586;29;1714;-86
2023/04/18 02:34:05;;;;;;;9.18;7.50;;;;;;;;;;490741;29;1256;-86
2023/04/18 02:36:06;;;;;;;9.20;7.57;;;;;;;;;;488969;29;1410;-86
2023/04/18 02:36:16;;;;;;;9.52;7.45;;;;;;;;;;490691;29;1260;-87
2023/04/18 02:36:33;;;;;;;9.00;7.37;;;;;;;;;;486487;29;1289;-86
2023/04/18 02:37:04;;;;;;;8.75;7.32;;;;;;;;;;492732;29;1536;-87
2023/04/18 02:38:01;;;;;;;8.25;7.35;;;;;;;;;;488125;29;1433;-87
2023/04/18 02:38:18;;;;;;;9.35;7.60;;;;;;;;;;485923;29;1934;-86
2023/04/18 02:38:34;;;;;;;8.95;7.63;;;;;;;;;;492296;29;1140;-86
2023/04/18 02:39:10;;;;;;;8.95;7.25;;;;;;;;;;490215;29;1192;-85
2023/04/18 02:39:42;;;;;;;8.35;7.50;;;;;;;;;;489444;29;1418;-86
2023/04/18 02:40:07;;;;;;;8.10;7.10;;;;;;;;;;491509;29;1373;-86
2023/04/18 02:40:28;;;;;;;8.52;7.43;;;;;;;;;;487592;29;1374;-86
2023/04/18 02:41:18;;;;;;;9.07;7.82;;;;;;;;;;493811;29;1115;-87
2023/04/18 02:41:46;;;;;;;9.65;7.80;;;;;;;;;;488403;29;1165;-87
2023/04/18 02:42:07;;;;;;;9.13;8.02;;;;;;;;;;488897;29;1186;-87
2023/04/18 02:43:04;;;;;;;9.50;7.80;;;;;;;;;;485465;29;1279;-87
2023/04/18 02:43:27;;;;;;;8.13;7.32;;;;;;;;;;482259;29;1137;-86
2023/04/18 02:43:45;;;;;;;8.57;7.68;;;;;;;;;;485722;29;1209;-85
2023/04/18 02:44:04;;;;;;;9.13;7.55;;;;;;;;;;489040;29;1234;-85
2023/04/18 02:44:40;;;;;;;8.35;7.47;;;;;;;;;;487640;29;1244;-86
2023/04/18 02:46:20;;;;;;;9.18;7.45;;;;;;;;;;483263;29;1852;-85
2023/04/18 02:46:36;;;;;;;10.35;7.93;;;;;;;;;;486163;29;1232;-85
2023/04/18 02:47:12;;;;;;;9.43;7.97;;;;;;;;;;494337;29;1409;-86
2023/04/18 02:49:32;;;;;;;9.25;7.95;;;;;;;;;;502837;28;897;-86
2023/04/18 02:51:03;;;;;;;9.18;8.20;;;;;;;;;;499521;28;1214;-86
2023/04/18 02:51:21;;;;;;;8.48;7.63;;;;;;;;;;497324;28;1244;-85
2023/04/18 02:52:45;;;;;;;10.25;8.25;;;;;;;;;;501336;28;1248;-85
2023/04/18 02:53:04;;;;;;;10.45;8.60;;;;;;;;;;499979;28;1339;-86
2023/04/18 02:53:29;;;;;;;9.57;8.38;;;;;;;;;;495328;28;1363;-85
2023/04/18 02:54:06;;;;;;;8.70;7.90;;;;;;;;;;500014;28;1341;-85
2023/04/18 02:54:24;;;;;;;10.40;7.70;;;;;;;;;;501359;28;1711;-84
2023/04/18 02:54:57;;;;;;;10.32;8.00;;;;;;;;;;504113;28;1133;-85
2023/04/18 02:55:13;;;;;;;10.93;8.48;;;;;;;;;;497616;28;1304;-85
2023/04/18 02:56:01;;;;;;;10.25;8.30;;;;;;;;;;504523;28;1335;-85
2023/04/18 02:56:17;;;;;;;8.90;8.00;;;;;;;;;;495195;28;1187;-84
2023/04/18 02:56:53;;;;;;;9.00;8.05;;;;;;;;;;503098;28;1127;-84
2023/04/18 02:57:43;;;;;;;9.52;8.10;;;;;;;;;;493693;29;1099;-85
2023/04/18 02:58:28;;;;;;;9.18;8.10;;;;;;;;;;501902;28;1310;-85
2023/04/18 02:58:47;;;;;;;10.38;8.27;;;;;;;;;;506804;28;1251;-85
2023/04/18 03:00:09;;;;;;;9.25;8.05;;;;;;;;;;500132;28;1203;-85
2023/04/18 03:00:24;;;;;;;9.20;7.75;;;;;;;;;;494232;29;1388;-85
2023/04/18 03:01:04;;;;;;;9.10;7.65;;;;;;;;;;500324;28;1872;-85
2023/04/18 03:01:55;;;;;;;8.80;7.90;;;;;;;;;;499161;28;1315;-85
2023/04/18 03:02:17;;;;;;;9.43;7.85;;;;;;;;;;495228;28;1330;-85
2023/04/18 03:02:48;;;;;;;9.27;7.70;;;;;;;;;;498881;28;1174;-84
2023/04/18 03:03:11;;;;;;;9.15;8.18;;;;;;;;;;499632;28;1364;-85
2023/04/18 03:04:23;;;;;;;10.02;8.30;;;;;;;;;;498783;28;1175;-85
2023/04/18 03:04:32;;;;;;;11.02;8.30;;;;;;;;;;499734;28;1251;-87
2023/04/18 03:04:58;;;;;;;11.80;8.52;;;;;;;;;;501022;28;1245;-86
2023/04/18 03:05:23;;;;;;;9.75;8.45;;;;;;;;;;495796;28;1182;-86
2023/04/18 03:05:41;;;;;;;9.20;7.80;;;;;;;;;;501824;28;1387;-85
2023/04/18 03:06:28;;;;;;;;;;;;;;;;;;;;;
2023/04/18 03:06:55;;;;;;;8.85;7.90;;;;;;;;;;499950;28;1265;-85
2023/04/18 03:07:31;;;;;;;9.60;8.60;;;;;;;;;;497473;28;1167;-85
2023/04/18 03:08:09;;;;;;;11.60;8.20;;;;;;;;;;499352;28;1612;-85
2023/04/18 03:09:03;;;;;;;8.85;7.95;;;;;;;;;;502343;28;1178;-84
2023/04/18 03:09:21;;;;;;;11.43;10.32;;;;;;;;;;497952;28;1271;-86
2023/04/18 03:09:49;;;;;;;11.35;10.35;;;;;;;;;;499039;28;1367;-85
2023/04/18 03:10:05;;;;;;;13.18;11.93;;;;;;;;;;497951;28;1437;-85
2023/04/18 03:11:01;;;;;;;11.07;9.98;;;;;;;;;;503292;28;1026;-84
2023/04/18 03:11:28;;;;;;;10.80;9.80;;;;;;;;;;499546;28;1221;-84
2023/04/18 03:11:49;;;;;;;11.27;10.18;;;;;;;;;;504888;28;1158;-84
2023/04/18 03:12:08;;;;;;;12.25;10.27;;;;;;;;;;503241;28;1363;-84
2023/04/18 03:13:09;;;;;;;10.73;9.63;;;;;;;;;;506619;28;884;-85
2023/04/18 03:13:40;;;;;;;12.43;11.13;;;;;;;;;;502640;28;1182;-84
2023/04/18 03:13:56;;;;;;;16.65;14.20;;;;;;;;;;504921;28;1426;-86
2023/04/18 03:14:23;;;;;;;15.95;14.32;;;;;;;;;;502293;28;1111;-85
2023/04/18 03:14:57;;;;;;;;;;;;;;;;;;;;;
2023/04/18 03:15:15;;;;;;;17.00;15.20;;;;;;;;;;506220;28;1050;-85
2023/04/18 03:16:44;;;;;;;15.65;14.13;;;;;;;;;;505351;28;1136;-84
2023/04/18 03:17:20;;;;;;;15.32;13.82;;;;;;;;;;507746;28;1389;-85
2023/04/18 03:18:02;;;;;;;13.82;12.60;;;;;;;;;;507146;28;1271;-85
2023/04/18 03:18:26;;;;;;;13.65;12.35;;;;;;;;;;500549;28;1975;-85
2023/04/18 03:18:44;;;;;;;14.63;12.30;;;;;;;;;;506333;28;1288;-85
2023/04/18 03:19:04;;;;;;;13.55;11.80;;;;;;;;;;502868;28;1260;-83
2023/04/18 03:20:09;;;;;;;12.88;11.60;;;;;;;;;;498994;28;1056;-86
2023/04/18 03:20:27;;;;;;;10.65;9.55;;;;;;;;;;498355;28;1320;-85
2023/04/18 03:20:45;;;;;;;10.48;9.50;;;;;;;;;;501559;28;1223;-85
2023/04/18 03:21:17;;;;;;;10.60;9.60;;;;;;;;;;500363;29;1120;-85
2023/04/18 03:21:42;;;;;;;12.20;10.82;;;;;;;;;;503353;28;1182;-85
2023/04/18 03:22:27;;;;;;;12.10;10.95;;;;;;;;;;495740;28;1278;-85
2023/04/18 03:22:45;;;;;;;11.75;10.65;;;;;;;;;;500606;28;1151;-85
2023/04/18 03:23:07;;;;;;;12.05;10.85;;;;;;;;;;503169;28;1265;-86
2023/04/18 03:23:26;;;;;;;11.43;10.27;;;;;;;;;;496838;29;1102;-85
2023/04/18 03:23:51;;;;;;;10.75;9.75;;;;;;;;;;495799;29;1508;-85
2023/04/18 03:24:10;;;;;;;11.25;10.15;;;;;;;;;;497315;29;1135;-85
2023/04/18 03:24:47;;;;;;;10.68;9.65;;;;;;;;;;501307;28;1183;-85
2023/04/18 03:25:03;;;;;;;10.48;9.40;;;;;;;;;;500688;29;1267;-86
2023/04/18 03:28:07;;;;;;;10.85;9.75;;;;;;;;;;505815;28;1353;-85
2023/04/18 03:29:35;;;;;;;10.20;9.10;;;;;;;;;;502665;28;1384;-85
2023/04/18 03:30:35;;;;;;;10.43;9.35;;;;;;;;;;504761;28;1308;-85
2023/04/18 03:30:53;;;;;;;9.77;8.75;;;;;;;;;;508346;28;1661;-85
2023/04/18 03:31:12;;;;;;;11.13;9.20;;;;;;;;;;506491;28;1335;-85
2023/04/18 03:31:32;;;;;;;10.95;9.85;;;;;;;;;;507106;28;1309;-85
2023/04/18 03:32:02;;;;;;;11.90;10.80;;;;;;;;;;504431;28;1201;-85
2023/04/18 03:32:17;;;;;;;13.40;11.48;;;;;;;;;;478679;28;1490;-84
2023/04/18 03:32:33;;;;;;;12.37;10.40;;;;;;;;;;471509;28;1199;-86
2023/04/18 03:32:51;;;;;;;10.70;9.70;;;;;;;;;;477998;28;1224;-85
2023/04/18 03:33:07;;;;;;;10.02;9.13;;;;;;;;;;480871;28;1257;-85
2023/04/18 03:33:22;;;;;;;9.85;8.95;;;;;;;;;;489774;28;1059;-85
2023/04/18 03:33:38;;;;;;;10.60;9.50;;;;;;;;;;492359;28;1138;-85
2023/04/18 03:33:54;;;;;;;11.18;9.68;;;;;;;;;;501906;28;1433;-85
2023/04/18 03:34:29;;;;;;;10.40;9.25;;;;;;;;;;501011;28;1278;-84
2023/04/18 03:34:55;;;;;;;10.07;9.15;;;;;;;;;;501468;29;1411;-84
2023/04/18 03:35:43;;;;;;;10.15;9.15;;;;;;;;;;504660;28;1406;-84
2023/04/18 03:36:05;;;;;;;11.70;10.65;;;;;;;;;;502433;28;1181;-84
2023/04/18 03:36:41;;;;;;;11.48;10.18;;;;;;;;;;498417;29;1241;-85
2023/04/18 03:37:17;;;;;;;9.90;8.95;;;;;;;;;;502596;29;1914;-84
2023/04/18 03:38:36;;;;;;;9.38;8.48;;;;;;;;;;497257;29;1188;-84
2023/04/18 03:39:12;;;;;;;9.43;8.52;;;;;;;;;;503746;29;1031;-84
2023/04/18 03:39:30;;;;;;;9.45;8.50;;;;;;;;;;499312;29;1279;-85
2023/04/18 03:39:49;;;;;;;11.23;8.88;;;;;;;;;;497870;29;1682;-85
2023/04/18 03:40:17;;;;;;;10.73;9.02;;;;;;;;;;495125;29;1286;-84
2023/04/18 03:41:00;;;;;;;10.75;9.75;;;;;;;;;;497270;29;1281;-85
2023/04/18 03:41:18;;;;;;;10.43;8.60;;;;;;;;;;497794;28;1371;-83
2023/04/18 03:41:46;;;;;;;9.80;8.80;;;;;;;;;;506261;28;1253;-85
2023/04/18 03:42:02;;;;;;;11.27;9.10;;;;;;;;;;505284;28;1165;-85
2023/04/18 03:42:27;;;;;;;9.80;8.73;;;;;;;;;;498854;28;1266;-85
2023/04/18 03:43:06;;;;;;;10.00;8.60;;;;;;;;;;503448;28;1359;-85
2023/04/18 03:43:19;;;;;;;9.80;8.38;;;;;;;;;;498302;28;1213;-85
2023/04/18 03:44:00;;;;;;;9.68;8.68;;;;;;;;;;502303;28;1150;-86
2023/04/18 03:44:46;;;;;;;10.77;9.02;;;;;;;;;;503280;28;1372;-85
2023/04/18 03:46:46;;;;;;;9.63;8.63;;;;;;;;;;497942;29;1081;-86
2023/04/18 03:47:15;;;;;;;8.93;8.10;;;;;;;;;;498060;29;1312;-87
2023/04/18 03:47:46;;;;;;;10.20;8.70;;;;;;;;;;498689;29;1312;-86
2023/04/18 03:48:08;;;;;;;9.70;8.70;;;;;;;;;;494040;29;1145;-86
2023/04/18 03:48:27;;;;;;;10.95;9.27;;;;;;;;;;494610;29;1267;-86
2023/04/18 03:49:56;;;;;;;9.85;8.85;;;;;;;;;;496214;29;1394;-85
2023/04/18 03:50:29;;;;;;;;;;;;;;;;;;;;;
2023/04/18 03:51:04;;;;;;;12.48;10.05;;;;;;;;;;494464;29;1236;-86
2023/04/18 03:51:30;;;;;;;13.52;11.82;;;;;;;;;;489921;29;1216;-86
2023/04/18 03:52:21;;;;;;;;;;;;;;;;;;;;;
2023/04/18 03:52:51;;;;;;;10.77;9.68;;;;;;;;;;488749;29;1321;-87
2023/04/18 03:53:17;;;;;;;14.73;13.32;;;;;;;;;;482143;29;1193;-87